Time;durP1;ratioP1;P1;durP2;ratioP2;P2;SDS_P1;SDS_P2;PMS_P1;PMS_P2;Temp;Humidity;BMP_temperature;BMP_pressure;BME280_temperature;BME280_humidity;BME280_pressure;Samples;Min_cycle;Max_cycle;Signal;HPM_P1;HPM_P2
2021/12/17 00:01:06;;;;;;;9.20;7.77;;;;;;;6.89;61.95;100181.56;5089881;28;20192;-56
2021/12/17 00:03:42;;;;;;;10.97;7.90;;;;;;;6.89;61.35;100186.66;5089876;28;20255;-56
2021/12/17 00:06:18;;;;;;;13.40;7.90;;;;;;;6.82;61.67;100193.19;5089880;28;20555;-56
2021/12/17 00:08:48;;;;;;;9.50;7.53;;;;;;;6.78;61.51;100193.00;5089692;28;20274;-56
2021/12/17 00:11:15;;;;;;;9.77;8.17;;;;;;;6.82;61.95;100190.63;5090084;28;20232;-56
2021/12/17 00:13:45;;;;;;;10.20;8.40;;;;;;;6.80;61.40;100183.72;5089715;28;20279;-56
2021/12/17 00:16:20;;;;;;;9.80;7.47;;;;;;;6.79;62.23;100175.19;5090025;28;20576;-56
2021/12/17 00:19:01;;;;;;;12.43;8.03;;;;;;;6.71;61.72;100152.69;5089989;28;20201;-56
2021/12/17 00:48:54;;;;;;;10.07;7.67;;;;;;;6.76;61.18;100179.28;5093274;28;20234;-56
2021/12/17 00:51:55;;;;;;;10.07;8.57;;;;;;;6.78;61.62;100175.13;5092383;28;20950;-56
2021/12/17 00:54:32;;;;;;;11.60;8.37;;;;;;;6.89;61.69;100182.44;5093143;28;20664;-56
2021/12/17 00:57:01;;;;;;;9.40;8.37;;;;;;;6.93;61.14;100181.75;5092885;28;20192;-56
2021/12/17 00:59:28;;;;;;;10.23;8.10;;;;;;;6.95;61.30;100179.28;5092877;28;20278;-56
2021/12/17 01:01:59;;;;;;;10.80;8.17;;;;;;;6.93;61.04;100175.75;5092731;28;20585;-56
2021/12/17 01:04:27;;;;;;;12.13;8.23;;;;;;;6.93;61.05;100179.19;5093064;28;20590;-56
2021/12/17 01:06:55;;;;;;;10.67;7.90;;;;;;;6.94;60.94;100180.06;5092777;28;20196;-56
2021/12/17 01:09:25;;;;;;;10.23;9.10;;;;;;;6.93;61.12;100173.19;5091914;28;20432;-56
2021/12/17 01:11:52;;;;;;;11.33;8.37;;;;;;;7.00;60.86;100172.66;5092651;28;20661;-56
2021/12/17 01:14:19;;;;;;;11.23;7.63;;;;;;;6.93;60.58;100168.09;5092675;28;20244;-56
2021/12/17 01:16:47;;;;;;;9.37;7.67;;;;;;;6.91;60.50;100162.06;5092842;28;20216;-56
2021/12/17 01:19:23;;;;;;;11.23;7.47;;;;;;;6.84;60.47;100160.06;5092499;28;20652;-56
2021/12/17 01:22:14;;;;;;;11.27;8.47;;;;;;;6.84;60.93;100166.03;5092586;28;20243;-56
2021/12/17 01:24:47;;;;;;;11.70;7.90;;;;;;;6.83;61.42;100169.41;5092639;28;20258;-56
2021/12/17 01:35:30;;;;;;;12.65;9.55;;;;;;;6.85;60.77;100155.00;5091177;28;20448;-56
2021/12/17 01:43:37;;;;;;;10.00;7.83;;;;;;;6.76;61.66;100163.97;5050852;28;20253;-56
2021/12/17 01:46:05;;;;;;;10.43;7.57;;;;;;;6.72;61.72;100155.31;5092392;28;20189;-56
2021/12/17 01:48:50;;;;;;;11.23;8.67;;;;;;;6.72;61.39;100160.44;5092000;28;20744;-56
2021/12/17 01:56:55;;;;;;;10.83;7.97;;;;;;;6.64;62.36;100143.91;5091841;28;20208;-56
2021/12/17 01:59:29;;;;;;;10.07;8.27;;;;;;;6.58;63.05;100152.97;5092278;28;20191;-56
2021/12/17 02:02:02;;;;;;;12.23;8.27;;;;;;;6.60;62.70;100151.34;5091854;28;20678;-56
2021/12/17 02:04:31;;;;;;;11.40;8.47;;;;;;;6.61;62.58;100145.47;5091681;28;20202;-56
2021/12/17 02:06:59;;;;;;;8.40;7.33;;;;;;;6.53;62.89;100153.69;5091501;28;20226;-56
2021/12/17 02:32:41;;;;;;;11.07;8.13;;;;;;;6.44;64.12;100139.63;5033948;28;20202;-56
2021/12/17 02:37:52;;;;;;;11.20;8.37;;;;;;;6.43;63.81;100128.53;5088250;28;20256;-56
2021/12/17 02:45:45;;;;;;;10.57;7.40;;;;;;;6.35;63.62;100124.78;5091014;28;20781;-56
2021/12/17 02:48:14;;;;;;;11.63;9.27;;;;;;;6.35;63.79;100124.78;5089861;28;20442;-56
2021/12/17 02:50:44;;;;;;;13.90;8.87;;;;;;;6.37;64.41;100128.28;5090741;28;20206;-56
2021/12/17 02:53:15;;;;;;;10.65;8.73;;;;;;;6.29;63.92;100129.63;5090299;28;20420;-56
2021/12/17 02:55:45;;;;;;;10.43;8.47;;;;;;;6.30;63.80;100118.63;5090769;28;20297;-57
2021/12/17 02:58:12;;;;;;;10.47;7.60;;;;;;;6.35;63.82;100131.56;5090819;28;20547;-56
2021/12/17 03:00:41;;;;;;;11.93;8.43;;;;;;;6.30;63.80;100140.72;5090318;28;20582;-56
2021/12/17 03:03:09;;;;;;;10.70;7.63;;;;;;;6.28;64.45;100142.34;5090424;28;20219;-56
2021/12/17 03:05:39;;;;;;;11.30;8.23;;;;;;;6.29;64.20;100142.38;5090504;28;20193;-56
2021/12/17 03:08:08;;;;;;;8.67;6.63;;;;;;;6.32;64.19;100136.53;5090439;28;20284;-56
2021/12/17 03:10:36;;;;;;;10.77;8.23;;;;;;;6.37;63.98;100137.63;5090706;28;20196;-56
2021/12/17 03:13:04;;;;;;;10.63;7.57;;;;;;;6.34;64.23;100132.41;5090515;28;20189;-56
2021/12/17 03:15:36;;;;;;;12.83;7.97;;;;;;;6.36;64.33;100131.66;5090222;28;20211;-56
2021/12/17 03:23:43;;;;;;;9.37;7.13;;;;;;;6.13;64.77;100103.38;5090456;28;20643;-56
2021/12/17 03:26:14;;;;;;;10.20;7.30;;;;;;;6.35;64.54;100132.44;5090564;28;20231;-56
2021/12/17 03:28:43;;;;;;;12.80;7.50;;;;;;;6.31;65.37;100135.69;5090601;28;20289;-56
2021/12/17 03:31:11;;;;;;;9.37;7.40;;;;;;;6.34;64.89;100138.38;5090261;28;20310;-56
2021/12/17 03:33:41;;;;;;;10.57;7.63;;;;;;;6.38;65.39;100136.81;5090315;28;20281;-56
2021/12/17 03:36:09;;;;;;;10.23;7.63;;;;;;;6.24;64.67;100105.59;5090483;28;20201;-56
2021/12/17 03:38:36;;;;;;;10.03;7.90;;;;;;;6.38;65.22;100135.13;5090417;28;20282;-56
2021/12/17 03:41:18;;;;;;;10.43;8.07;;;;;;;6.39;65.39;100142.00;5090407;28;20625;-56
2021/12/17 03:43:47;;;;;;;10.23;7.33;;;;;;;6.38;65.22;100132.59;5090318;28;20218;-56
2021/12/17 03:46:15;;;;;;;9.63;7.93;;;;;;;6.41;64.99;100136.94;5090315;28;20191;-56
2021/12/17 03:48:42;;;;;;;9.57;8.07;;;;;;;6.42;65.79;100131.94;5089993;28;20195;-56
2021/12/17 03:51:14;;;;;;;11.47;8.10;;;;;;;6.39;65.77;100123.25;5090085;28;20577;-56
2021/12/17 03:53:42;;;;;;;11.17;7.93;;;;;;;6.48;65.46;100121.94;5090141;28;20565;-56
2021/12/17 03:56:09;;;;;;;10.77;7.63;;;;;;;6.52;65.43;100125.50;5090173;28;20278;-56
2021/12/17 03:58:36;;;;;;;9.50;7.13;;;;;;;6.51;65.22;100122.09;5090150;28;20197;-56
2021/12/17 04:01:05;;;;;;;10.00;7.33;;;;;;;6.53;64.60;100120.50;5090039;28;20196;-56
2021/12/17 04:03:32;;;;;;;9.93;7.53;;;;;;;6.60;65.08;100128.38;5089698;28;20217;-56
2021/12/17 04:05:59;;;;;;;9.80;6.83;;;;;;;6.61;64.61;100120.81;5089830;28;20204;-56
2021/12/17 04:08:27;;;;;;;12.05;8.77;;;;;;;6.68;64.89;100124.47;5089260;28;20533;-56
2021/12/17 04:11:02;;;;;;;8.87;7.93;;;;;;;6.73;64.83;100117.91;5089966;28;20636;-56
2021/12/17 04:13:32;;;;;;;10.60;8.07;;;;;;;6.75;64.54;100118.81;5092354;28;20197;-56
2021/12/17 04:16:02;;;;;;;11.13;7.93;;;;;;;6.77;64.65;100118.06;5093728;28;20288;-56
2021/12/17 04:18:31;;;;;;;9.07;7.47;;;;;;;6.78;64.57;100111.28;5093896;28;20276;-56
2021/12/17 04:21:01;;;;;;;9.13;7.63;;;;;;;6.80;64.56;100114.78;5094103;28;20203;-56
2021/12/17 04:23:28;;;;;;;12.03;7.80;;;;;;;6.76;64.21;100112.88;5093875;28;20635;-56
2021/12/17 04:25:55;;;;;;;11.10;8.00;;;;;;;6.79;64.42;100115.56;5094061;28;20542;-56
2021/12/17 04:28:22;;;;;;;10.23;8.00;;;;;;;6.83;64.19;100104.69;5093998;28;20574;-56
2021/12/17 04:30:50;;;;;;;10.57;7.47;;;;;;;6.78;63.90;100098.53;5093425;28;20326;-56
2021/12/17 04:33:17;;;;;;;12.23;7.87;;;;;;;6.84;64.66;100106.44;5093428;28;20660;-56
2021/12/17 04:35:45;;;;;;;9.07;7.33;;;;;;;6.84;64.35;100109.00;5093444;28;20193;-56
2021/12/17 04:38:14;;;;;;;8.87;6.67;;;;;;;6.72;63.64;100065.06;5093548;28;20717;-56
2021/12/17 04:40:43;;;;;;;9.47;6.87;;;;;;;6.90;63.69;100116.88;5093005;28;20185;-56
2021/12/17 04:43:23;;;;;;;9.90;7.03;;;;;;;6.89;64.10;100117.72;5093474;28;21104;-56
2021/12/17 04:45:59;;;;;;;8.37;7.13;;;;;;;6.82;63.88;100108.03;5093604;28;20573;-56
2021/12/17 04:59:21;;;;;;;8.63;7.33;;;;;;;6.95;64.06;100111.13;5093236;28;20196;-56
2021/12/17 05:01:48;;;;;;;9.87;6.80;;;;;;;7.03;63.59;100108.91;5092774;28;20288;-56
2021/12/17 05:04:15;;;;;;;8.87;7.33;;;;;;;6.93;64.12;100107.66;5092526;28;20221;-56
2021/12/17 05:06:43;;;;;;;8.83;6.60;;;;;;;6.96;64.01;100109.47;5092843;28;20225;-56
2021/12/17 05:09:20;;;;;;;9.27;7.53;;;;;;;6.95;63.88;100111.13;5093055;28;20220;-56
2021/12/17 05:20:02;;;;;;;9.87;7.60;;;;;;;7.02;63.71;100107.16;5092733;28;20209;-56
2021/12/17 05:22:30;;;;;;;9.50;7.37;;;;;;;7.09;63.82;100115.13;5092497;28;20688;-56
2021/12/17 05:24:57;;;;;;;7.47;6.60;;;;;;;7.06;63.67;100107.34;5092057;28;20566;-56
2021/12/17 05:27:24;;;;;;;8.63;6.87;;;;;;;7.05;63.63;100102.19;5092469;28;20282;-56
2021/12/17 05:29:51;;;;;;;9.70;7.73;;;;;;;6.98;63.76;100095.06;5092145;28;20195;-56
2021/12/17 05:32:18;;;;;;;8.80;7.13;;;;;;;6.94;64.12;100085.56;5092094;28;20226;-56
2021/12/17 05:34:45;;;;;;;8.63;6.87;;;;;;;6.93;63.87;100079.56;5091848;28;20693;-56
2021/12/17 05:37:12;;;;;;;8.87;6.90;;;;;;;6.95;63.66;100069.44;5091797;28;20196;-56
2021/12/17 05:39:40;;;;;;;11.10;6.70;;;;;;;6.97;63.38;100063.56;5091991;28;20657;-56
2021/12/17 05:42:08;;;;;;;8.43;6.53;;;;;;;6.97;63.70;100068.66;5092173;28;20235;-56
2021/12/17 05:44:34;;;;;;;10.63;7.30;;;;;;;6.90;63.74;100066.66;5092212;28;20222;-55
2021/12/17 05:47:01;;;;;;;10.10;7.53;;;;;;;6.96;63.83;100071.16;5092113;28;20191;-55
2021/12/17 05:49:28;;;;;;;7.83;6.77;;;;;;;6.91;63.29;100063.31;5091989;28;20207;-55
2021/12/17 05:51:56;;;;;;;11.47;7.47;;;;;;;6.93;62.98;100058.25;5091704;28;20258;-55
2021/12/17 05:54:23;;;;;;;7.60;6.30;;;;;;;6.94;63.04;100053.22;5091666;28;20562;-55
2021/12/17 05:56:51;;;;;;;10.03;6.67;;;;;;;6.94;62.57;100037.91;5091896;28;20216;-55
2021/12/17 05:59:18;;;;;;;9.93;7.33;;;;;;;6.93;62.79;100054.03;5091512;28;20201;-56
2021/12/17 06:01:45;;;;;;;10.47;7.03;;;;;;;6.90;62.83;100050.47;5091726;28;20274;-57
2021/12/17 06:04:12;;;;;;;10.67;7.77;;;;;;;6.94;62.76;100065.13;5091526;28;20605;-56
2021/12/17 06:06:45;;;;;;;9.47;6.70;;;;;;;6.90;62.90;100040.25;5091405;28;20197;-55
2021/12/17 06:09:13;;;;;;;9.77;6.67;;;;;;;7.00;62.55;100060.25;5091355;28;20190;-57
2021/12/17 06:11:40;;;;;;;7.50;6.47;;;;;;;7.03;62.41;100073.16;5091423;28;20279;-55
2021/12/17 06:14:08;;;;;;;10.13;8.23;;;;;;;7.06;62.22;100080.91;5090671;28;20887;-55
2021/12/17 06:16:36;;;;;;;9.67;7.70;;;;;;;7.09;61.53;100066.56;5091178;28;20195;-56
2021/12/17 06:19:04;;;;;;;9.70;7.23;;;;;;;7.12;61.61;100063.25;5091342;28;20192;-56
2021/12/17 06:21:31;;;;;;;7.30;6.00;;;;;;;7.17;61.69;100060.91;5091515;28;21001;-57
2021/12/17 06:23:58;;;;;;;8.60;7.40;;;;;;;7.17;61.75;100061.75;5091390;28;20219;-55
2021/12/17 06:26:25;;;;;;;8.27;6.90;;;;;;;7.17;61.42;100066.88;5091244;28;20188;-55
2021/12/17 06:28:52;;;;;;;8.67;6.23;;;;;;;7.19;61.44;100067.81;5090951;28;20190;-55
2021/12/17 06:31:23;;;;;;;7.57;6.67;;;;;;;7.13;61.85;100065.03;5090878;28;20223;-56
2021/12/17 06:33:50;;;;;;;9.90;6.50;;;;;;;7.14;62.22;100059.97;5100185;28;20196;-55
2021/12/17 06:36:18;;;;;;;8.80;6.70;;;;;;;7.17;61.64;100053.25;5109507;28;20214;-56
2021/12/17 06:38:45;;;;;;;8.77;6.53;;;;;;;7.19;62.08;100060.16;5110878;28;20187;-56
2021/12/17 06:41:12;;;;;;;9.90;6.80;;;;;;;7.13;62.20;100065.91;5110711;28;20209;-56
2021/12/17 06:43:42;;;;;;;8.53;7.13;;;;;;;7.18;61.68;100068.63;5110999;28;20237;-56
2021/12/17 06:46:24;;;;;;;10.47;6.83;;;;;;;7.19;61.76;100066.94;5110932;28;20272;-56
2021/12/17 06:48:58;;;;;;;10.50;7.50;;;;;;;7.18;61.61;100076.28;5111153;28;20542;-56
2021/12/17 06:59:42;;;;;;;9.80;7.00;;;;;;;7.24;62.66;100081.66;5110777;28;20191;-56
2021/12/17 07:10:36;;;;;;;11.13;8.23;;;;;;;7.17;62.79;100058.34;5068908;28;20193;-56
2021/12/17 07:21:28;;;;;;;10.57;7.60;;;;;;;7.37;63.49;100085.53;5110592;28;20245;-56
2021/12/17 07:32:20;;;;;;;13.10;7.00;;;;;;;7.61;64.32;100082.22;5089755;28;20232;-60
2021/12/17 07:35:02;;;;;;;13.30;7.93;;;;;;;7.71;63.66;100080.88;5090522;28;20176;-61
2021/12/17 07:40:15;;;;;;;9.37;6.77;;;;;;;7.80;63.75;100085.47;5107805;28;20569;-61
2021/12/17 07:42:42;;;;;;;9.33;7.27;;;;;;;7.89;63.48;100085.78;5110314;28;20287;-61
2021/12/17 07:45:10;;;;;;;11.90;7.07;;;;;;;7.98;63.24;100081.00;5110315;28;20220;-60
2021/12/17 07:47:37;;;;;;;9.63;7.00;;;;;;;8.05;63.09;100078.69;5113360;28;20192;-61
2021/12/17 07:50:05;;;;;;;12.40;6.33;;;;;;;8.11;62.98;100068.69;5114644;28;20204;-56
2021/12/17 07:52:33;;;;;;;7.57;6.10;;;;;;;8.24;62.49;100072.56;5114481;28;20204;-55
2021/12/17 07:55:00;;;;;;;9.63;6.07;;;;;;;8.32;62.56;100066.06;5114451;28;20184;-56
2021/12/17 07:57:27;;;;;;;12.13;6.87;;;;;;;8.41;61.72;100068.03;5114693;28;20608;-56
2021/12/17 07:59:53;;;;;;;9.90;6.77;;;;;;;8.53;61.61;100065.88;5105622;28;20300;-56
2021/12/17 08:02:20;;;;;;;8.50;5.70;;;;;;;8.38;60.55;100030.38;5111262;28;20209;-56
2021/12/17 08:04:47;;;;;;;8.35;6.32;;;;;;;8.53;60.55;100059.06;5113780;28;20964;-56
2021/12/17 08:07:14;;;;;;;8.17;6.53;;;;;;;8.65;60.08;100064.59;5114368;28;20185;-56
2021/12/17 08:09:43;;;;;;;9.23;6.73;;;;;;;8.68;59.38;100051.88;5114218;28;20194;-56
2021/12/17 08:12:10;;;;;;;9.97;6.43;;;;;;;8.70;59.37;100064.75;5113779;28;20686;-57
2021/12/17 08:14:38;;;;;;;6.73;5.83;;;;;;;8.70;59.25;100057.94;5114231;28;20174;-57
2021/12/17 08:17:18;;;;;;;7.37;5.70;;;;;;;8.71;58.87;100054.53;5114090;28;20195;-62
2021/12/17 08:25:45;;;;;;;6.57;5.00;;;;;;;8.59;59.65;100040.47;5058020;28;20778;-61
2021/12/17 08:28:13;;;;;;;6.07;4.40;;;;;;;8.58;60.19;100034.50;5068665;28;20286;-61
2021/12/17 08:30:40;;;;;;;6.17;5.20;;;;;;;8.66;60.65;100040.72;5082629;28;20219;-61
2021/12/17 08:33:07;;;;;;;5.90;5.03;;;;;;;8.73;60.25;100036.69;5093250;28;20193;-61
2021/12/17 08:35:35;;;;;;;6.73;5.00;;;;;;;8.78;60.12;100035.13;5082960;28;20268;-61
2021/12/17 08:38:05;;;;;;;7.20;4.40;;;;;;;8.77;60.17;100047.06;5082856;28;20198;-62
2021/12/17 08:40:34;;;;;;;6.60;5.03;;;;;;;8.82;59.72;100019.91;5082717;28;20195;-60
2021/12/17 08:43:01;;;;;;;5.30;4.80;;;;;;;8.99;59.64;100028.09;5087292;28;20553;-61
2021/12/17 08:45:28;;;;;;;9.93;5.00;;;;;;;9.20;59.04;100026.19;5087580;28;20289;-61
2021/12/17 08:47:55;;;;;;;5.27;4.50;;;;;;;9.14;58.36;100037.97;5093451;28;20272;-61
2021/12/17 08:50:23;;;;;;;9.20;5.30;;;;;;;9.14;58.43;100031.16;5092773;28;20194;-62
2021/12/17 08:52:50;;;;;;;7.10;4.87;;;;;;;9.17;58.19;100028.69;5092807;28;20205;-61
2021/12/17 08:55:17;;;;;;;6.97;5.13;;;;;;;9.31;58.29;100026.53;5092816;28;20205;-61
2021/12/17 08:57:45;;;;;;;8.57;5.17;;;;;;;9.28;58.24;100014.50;5091658;28;20198;-61
2021/12/17 09:00:15;;;;;;;5.37;4.73;;;;;;;9.40;58.46;100017.41;5091968;28;20512;-61
2021/12/17 09:02:42;;;;;;;5.70;4.27;;;;;;;9.46;58.15;100015.03;5092701;28;20206;-61
2021/12/17 09:05:10;;;;;;;5.40;4.43;;;;;;;9.50;58.97;100013.41;5091446;28;20656;-61
2021/12/17 09:07:37;;;;;;;4.37;3.97;;;;;;;9.44;59.38;100006.41;5091155;28;20194;-61
2021/12/17 09:10:06;;;;;;;5.23;4.07;;;;;;;9.52;59.55;99998.06;5091183;28;20538;-61
2021/12/17 09:12:33;;;;;;;7.23;4.43;;;;;;;9.52;59.92;99988.66;5091059;28;20190;-61
2021/12/17 09:15:01;;;;;;;5.00;4.03;;;;;;;9.54;59.36;99997.28;5090970;28;20200;-62
2021/12/17 09:17:29;;;;;;;7.60;4.30;;;;;;;9.66;59.14;99982.22;5091033;28;20422;-61
2021/12/17 09:19:56;;;;;;;6.03;4.60;;;;;;;9.60;58.86;99976.94;5091734;28;20273;-57
2021/12/17 09:22:23;;;;;;;5.87;4.63;;;;;;;9.62;59.39;99965.00;5092347;28;20281;-57
2021/12/17 09:24:50;;;;;;;6.50;4.90;;;;;;;9.65;58.87;99965.09;5092370;28;20242;-57
2021/12/17 09:27:16;;;;;;;7.27;4.40;;;;;;;9.63;59.29;99965.88;5092277;28;20194;-57
2021/12/17 09:29:43;;;;;;;6.80;4.80;;;;;;;9.72;59.23;99954.19;5092145;28;20213;-57
2021/12/17 09:32:12;;;;;;;7.47;4.93;;;;;;;9.95;58.87;99950.50;5091623;28;20237;-57
2021/12/17 09:34:39;;;;;;;6.90;5.27;;;;;;;10.01;58.42;99948.09;5091828;28;20194;-57
2021/12/17 09:37:06;;;;;;;12.23;4.87;;;;;;;9.95;59.10;99935.09;5092012;28;20221;-57
2021/12/17 09:39:33;;;;;;;8.20;4.20;;;;;;;9.95;58.75;99931.66;5091874;28;20194;-62
2021/12/17 09:42:00;;;;;;;7.73;4.80;;;;;;;9.95;59.07;99931.66;5091926;28;20276;-61
2021/12/17 09:44:27;;;;;;;11.27;5.10;;;;;;;9.98;59.20;99924.03;5091516;28;20302;-61
2021/12/17 09:46:57;;;;;;;7.13;4.80;;;;;;;9.90;59.68;99916.16;5091921;28;20197;-62
2021/12/17 09:49:26;;;;;;;8.40;5.00;;;;;;;10.01;59.69;99916.44;5091868;28;20197;-61
2021/12/17 09:51:53;;;;;;;15.43;5.70;;;;;;;9.98;60.34;99919.78;5092052;28;20941;-61
2021/12/17 09:54:20;;;;;;;7.33;4.80;;;;;;;9.85;60.57;99909.16;5092017;28;20228;-61
2021/12/17 09:56:47;;;;;;;5.33;4.83;;;;;;;9.88;61.01;99914.38;5091420;28;20197;-61
2021/12/17 09:59:15;;;;;;;8.33;4.87;;;;;;;9.85;61.37;99911.75;5091467;28;20250;-61
2021/12/17 10:01:45;;;;;;;7.10;4.87;;;;;;;9.79;61.54;99917.59;5091547;28;20197;-61
2021/12/17 10:04:17;;;;;;;7.40;4.50;;;;;;;9.76;61.64;99914.06;5091127;28;20715;-62
2021/12/17 10:06:47;;;;;;;8.13;5.70;;;;;;;9.84;61.85;99904.84;5091241;28;20280;-57
2021/12/17 10:09:15;;;;;;;7.60;5.70;;;;;;;9.89;61.50;99909.28;5089859;28;20435;-57
2021/12/17 10:12:03;;;;;;;6.73;5.10;;;;;;;9.88;62.22;99893.84;5090798;28;20226;-56
2021/12/17 10:14:30;;;;;;;7.43;5.17;;;;;;;9.75;62.34;99887.53;5091067;28;20194;-56
2021/12/17 10:17:10;;;;;;;5.87;5.07;;;;;;;9.72;63.20;99884.91;5090438;28;20602;-56
2021/12/17 10:19:48;;;;;;;5.90;4.67;;;;;;;9.70;63.28;99878.84;5083420;28;20656;-56
2021/12/17 10:22:19;;;;;;;7.53;4.53;;;;;;;9.67;63.74;99873.63;5099782;28;20195;-56
2021/12/17 10:24:57;;;;;;;6.70;5.87;;;;;;;9.69;63.94;99872.00;5097584;28;20221;-57
2021/12/17 10:27:26;;;;;;;4.90;4.40;;;;;;;9.67;64.38;99858.25;5111347;28;20186;-59
2021/12/17 10:29:55;;;;;;;8.03;5.27;;;;;;;9.71;64.78;99854.94;5110984;28;20214;-61
2021/12/17 10:32:24;;;;;;;5.83;4.83;;;;;;;9.74;64.80;99849.00;5110969;28;20303;-60
2021/12/17 10:35:02;;;;;;;4.70;4.20;;;;;;;9.62;64.56;99828.16;5110819;28;20661;-62
2021/12/17 10:37:39;;;;;;;4.17;3.77;;;;;;;9.84;64.62;99833.00;5111388;28;20644;-61
2021/12/17 10:40:21;;;;;;;6.93;5.10;;;;;;;9.84;64.71;99844.13;5109963;28;20197;-61
2021/12/17 10:42:58;;;;;;;6.50;5.13;;;;;;;9.83;64.38;99837.25;5109854;28;20201;-62
2021/12/17 10:45:27;;;;;;;9.50;5.53;;;;;;;9.84;64.20;99833.00;5109762;28;20345;-62
2021/12/17 10:48:13;;;;;;;6.33;5.63;;;;;;;9.76;64.44;99812.28;5103599;28;20197;-62
2021/12/17 10:50:40;;;;;;;6.07;5.40;;;;;;;9.75;62.99;99823.38;5111422;28;20309;-61
2021/12/17 10:53:09;;;;;;;6.43;5.10;;;;;;;9.80;62.10;99820.94;5110395;28;20194;-61
2021/12/17 10:55:36;;;;;;;10.90;5.97;;;;;;;9.97;61.71;99815.38;5090887;28;20194;-61
2021/12/17 10:58:04;;;;;;;8.67;5.13;;;;;;;9.98;60.84;99808.53;5090377;28;20769;-62
2021/12/17 11:00:31;;;;;;;4.90;4.40;;;;;;;10.01;60.58;99809.50;5090814;28;20527;-62
2021/12/17 11:03:03;;;;;;;8.13;6.20;;;;;;;9.98;60.47;99777.75;5090210;28;20230;-61
2021/12/17 11:05:34;;;;;;;5.10;4.60;;;;;;;10.03;60.75;99797.53;5099357;28;20217;-61
2021/12/17 11:08:24;;;;;;;6.93;5.17;;;;;;;10.13;60.47;99797.81;5110297;28;20190;-61
2021/12/17 11:10:57;;;;;;;5.90;5.30;;;;;;;10.14;60.71;99791.81;5110768;28;20662;-62
2021/12/17 11:13:25;;;;;;;7.67;6.07;;;;;;;10.26;60.26;99790.41;5110448;28;20201;-61
2021/12/17 11:15:53;;;;;;;7.28;5.35;;;;;;;10.21;60.05;99786.00;5110734;28;20377;-61
2021/12/17 11:18:21;;;;;;;7.30;5.77;;;;;;;10.29;59.74;99787.03;5110749;28;20194;-56
2021/12/17 11:20:48;;;;;;;8.53;6.03;;;;;;;10.32;59.93;99787.09;5110164;28;20675;-56
2021/12/17 11:23:16;;;;;;;8.77;4.77;;;;;;;10.21;59.22;99761.19;5110515;28;20209;-56
2021/12/17 11:25:49;;;;;;;7.30;5.37;;;;;;;10.38;58.94;99790.66;5110343;28;20229;-56
2021/12/17 11:28:16;;;;;;;7.80;5.30;;;;;;;10.26;58.61;99756.16;5110739;28;20290;-57
2021/12/17 11:30:46;;;;;;;7.57;4.80;;;;;;;10.34;58.42;99767.44;5110486;28;20235;-56
2021/12/17 11:33:14;;;;;;;5.93;5.00;;;;;;;10.42;58.36;99766.78;5110145;28;20285;-56
2021/12/17 11:35:44;;;;;;;6.20;5.43;;;;;;;10.40;58.41;99759.88;5110737;28;20274;-56
2021/12/17 11:38:14;;;;;;;5.87;4.70;;;;;;;10.19;58.56;99754.28;5084462;28;20290;-56
2021/12/17 11:40:48;;;;;;;5.87;4.70;;;;;;;10.26;58.85;99753.59;5089028;28;20187;-56
2021/12/17 11:43:49;;;;;;;7.77;5.30;;;;;;;10.40;58.83;99757.31;5087418;28;20226;-57
2021/12/17 11:46:18;;;;;;;10.73;5.17;;;;;;;10.42;59.03;99751.38;5075022;28;20207;-56
2021/12/17 11:48:52;;;;;;;6.60;5.50;;;;;;;10.50;58.94;99748.94;5089689;28;20533;-56
2021/12/17 11:51:23;;;;;;;10.97;5.17;;;;;;;10.53;59.54;99744.75;5089752;28;20195;-56
2021/12/17 11:54:17;;;;;;;5.80;4.80;;;;;;;10.68;59.16;99735.63;5090107;28;20194;-56
2021/12/17 11:56:48;;;;;;;6.43;5.13;;;;;;;10.56;59.57;99733.66;5071406;28;20735;-56
2021/12/17 11:59:37;;;;;;;7.53;4.70;;;;;;;10.63;59.59;99738.94;5069575;28;20282;-56
2021/12/17 12:02:11;;;;;;;6.10;4.90;;;;;;;10.61;59.79;99729.47;5069668;28;20253;-56
2021/12/17 12:04:57;;;;;;;5.67;4.47;;;;;;;10.50;59.95;99715.56;5069557;28;20306;-56
2021/12/17 12:07:41;;;;;;;7.50;4.50;;;;;;;10.49;59.95;99714.69;5069733;28;20260;-57
2021/12/17 12:10:22;;;;;;;8.60;5.17;;;;;;;10.40;59.65;99705.94;5069500;28;20280;-56
2021/12/17 12:12:58;;;;;;;6.63;5.32;;;;;;;10.47;59.82;99708.66;5068678;28;20871;-57
2021/12/17 12:15:33;;;;;;;6.73;5.20;;;;;;;10.50;59.40;99698.44;5069698;28;20218;-57
2021/12/17 12:18:12;;;;;;;7.50;5.63;;;;;;;10.48;59.53;99707.84;5069618;28;20231;-56
2021/12/17 12:20:52;;;;;;;6.27;4.93;;;;;;;10.42;59.79;99696.56;5069453;28;20191;-56
2021/12/17 12:23:20;;;;;;;6.17;4.77;;;;;;;10.43;59.42;99700.88;5076225;28;20200;-56
2021/12/17 12:26:08;;;;;;;6.57;5.00;;;;;;;10.40;59.62;99705.94;5110038;28;20218;-56
2021/12/17 12:28:54;;;;;;;5.90;5.32;;;;;;;10.42;59.64;99699.13;5099492;28;20495;-57
2021/12/17 12:31:40;;;;;;;5.60;4.90;;;;;;;10.50;59.36;99698.44;5088105;28;20329;-56
2021/12/17 12:34:10;;;;;;;7.43;4.00;;;;;;;10.54;59.49;99704.53;5091172;28;20725;-57
2021/12/17 12:36:56;;;;;;;6.70;5.03;;;;;;;10.46;59.63;99693.22;5092624;28;20436;-57
2021/12/17 12:39:25;;;;;;;6.43;5.13;;;;;;;10.55;59.61;99691.69;5072770;28;20188;-57
2021/12/17 12:42:01;;;;;;;5.77;5.00;;;;;;;10.43;59.47;99652.06;5072881;28;20301;-57
2021/12/17 12:45:07;;;;;;;8.67;4.93;;;;;;;10.65;59.65;99674.75;5072774;28;20283;-57
2021/12/17 12:47:41;;;;;;;5.27;4.67;;;;;;;10.63;60.08;99681.53;5072975;28;20302;-57
2021/12/17 12:50:12;;;;;;;5.93;5.23;;;;;;;10.70;59.93;99680.84;5078480;28;20204;-57
2021/12/17 12:52:41;;;;;;;8.93;5.00;;;;;;;10.63;60.53;99673.84;5078583;28;20924;-57
2021/12/17 12:55:14;;;;;;;5.83;4.63;;;;;;;10.51;61.18;99682.22;5072212;28;20191;-57
2021/12/17 12:57:44;;;;;;;5.40;4.60;;;;;;;10.36;61.66;99681.03;5072339;28;20176;-57
2021/12/17 13:00:14;;;;;;;5.97;5.37;;;;;;;10.23;61.97;99689.31;5072981;28;20378;-57
2021/12/17 13:02:43;;;;;;;9.67;6.33;;;;;;;10.21;61.91;99681.59;5072166;28;20187;-57
2021/12/17 13:05:11;;;;;;;6.50;5.10;;;;;;;9.96;62.45;99657.09;5072040;28;20718;-57
2021/12/17 13:07:40;;;;;;;8.83;5.50;;;;;;;10.18;62.64;99696.06;5095241;28;20232;-57
2021/12/17 13:10:09;;;;;;;7.17;5.63;;;;;;;10.09;62.38;99678.72;5101887;28;20301;-56
2021/12/17 13:12:37;;;;;;;6.70;5.23;;;;;;;9.97;63.72;99688.75;5107783;28;20211;-57
2021/12/17 13:15:19;;;;;;;6.73;5.27;;;;;;;9.80;63.40;99651.59;5112704;28;20225;-56
2021/12/17 13:23:47;;;;;;;6.00;5.40;;;;;;;10.00;63.23;99693.94;5046601;28;20474;-56
2021/12/17 13:26:15;;;;;;;5.47;4.97;;;;;;;9.89;63.86;99690.25;5049770;28;20227;-57
2021/12/17 13:28:56;;;;;;;9.10;5.67;;;;;;;9.92;64.02;99696.34;5049994;28;20701;-56
2021/12/17 13:31:35;;;;;;;5.73;5.13;;;;;;;9.88;63.91;99686.84;4981928;28;20604;-57
2021/12/17 13:34:12;;;;;;;5.83;5.30;;;;;;;9.86;64.15;99685.94;4979766;28;20774;-56
2021/12/17 13:36:51;;;;;;;7.17;6.20;;;;;;;9.84;64.43;99697.00;5029649;28;20206;-56
2021/12/17 13:39:20;;;;;;;7.07;6.37;;;;;;;9.67;63.70;99668.41;5029502;28;20290;-56
2021/12/17 13:41:48;;;;;;;6.17;5.57;;;;;;;9.80;63.57;99687.50;5029265;28;20200;-56
2021/12/17 13:44:43;;;;;;;7.70;6.17;;;;;;;9.81;63.73;99682.41;5029222;28;20200;-57
2021/12/17 13:47:14;;;;;;;5.77;5.27;;;;;;;9.75;63.62;99682.25;5029541;28;20657;-58
2021/12/17 13:49:48;;;;;;;6.33;5.73;;;;;;;9.72;63.67;99676.22;4980325;28;20185;-56
2021/12/17 13:52:15;;;;;;;5.33;4.80;;;;;;;9.80;63.85;99690.94;5029412;28;20683;-56
2021/12/17 13:54:47;;;;;;;6.33;5.73;;;;;;;9.71;63.71;99685.59;5029116;28;20203;-56
2021/12/17 13:57:17;;;;;;;6.53;5.73;;;;;;;9.46;64.25;99652.53;5052744;28;20190;-57
2021/12/17 13:59:47;;;;;;;7.07;5.10;;;;;;;9.54;64.36;99678.34;5091463;28;20183;-57
2021/12/17 14:02:16;;;;;;;4.80;4.33;;;;;;;9.51;64.23;99681.72;5091553;28;20197;-57
2021/12/17 14:05:02;;;;;;;4.77;4.33;;;;;;;9.49;64.80;99671.44;5056300;28;20189;-57
2021/12/17 14:07:31;;;;;;;4.60;4.13;;;;;;;9.49;64.74;99668.00;5091455;28;20255;-57
2021/12/17 14:10:07;;;;;;;5.07;4.57;;;;;;;9.46;64.62;99662.78;5091161;28;20198;-59
2021/12/17 14:12:39;;;;;;;6.43;3.80;;;;;;;9.43;64.65;99657.59;5091532;28;20193;-57
2021/12/17 14:15:10;;;;;;;7.17;4.07;;;;;;;9.10;65.24;99632.03;5091074;28;20281;-58
2021/12/17 14:17:40;;;;;;;6.90;4.13;;;;;;;9.26;65.40;99661.44;5073040;28;20603;-57
2021/12/17 14:20:14;;;;;;;5.27;3.77;;;;;;;9.20;65.52;99659.59;5092045;28;20187;-57
2021/12/17 14:22:44;;;;;;;6.93;4.27;;;;;;;9.19;65.81;99664.69;5091302;28;20178;-56